sensor_id;sensor_type;location;lat;lon;timestamp;temperature;humidity
17208;DHT22;8720;48.488;9.202;2022-12-20T00:01:24;5.50;69.00
17208;DHT22;8720;48.488;9.202;2022-12-20T00:03:54;5.60;68.80
17208;DHT22;8720;48.488;9.202;2022-12-20T00:06:24;5.50;68.50
17208;DHT22;8720;48.488;9.202;2022-12-20T00:08:53;5.50;68.70
17208;DHT22;8720;48.488;9.202;2022-12-20T00:11:22;5.50;68.80
17208;DHT22;8720;48.488;9.202;2022-12-20T00:13:51;5.50;68.20
17208;DHT22;8720;48.488;9.202;2022-12-20T00:16:20;5.40;68.10
17208;DHT22;8720;48.488;9.202;2022-12-20T00:18:51;5.40;68.00
17208;DHT22;8720;48.488;9.202;2022-12-20T00:21:20;5.40;68.00
17208;DHT22;8720;48.488;9.202;2022-12-20T00:23:47;5.40;68.10
17208;DHT22;8720;48.488;9.202;2022-12-20T00:26:17;5.30;68.10
17208;DHT22;8720;48.488;9.202;2022-12-20T00:28:47;5.30;68.00
17208;DHT22;8720;48.488;9.202;2022-12-20T00:31:16;5.30;68.00
17208;DHT22;8720;48.488;9.202;2022-12-20T00:33:46;5.30;68.10
17208;DHT22;8720;48.488;9.202;2022-12-20T00:36:16;5.30;68.00
17208;DHT22;8720;48.488;9.202;2022-12-20T00:38:45;5.30;68.00
17208;DHT22;8720;48.488;9.202;2022-12-20T00:41:16;5.20;67.80
17208;DHT22;8720;48.488;9.202;2022-12-20T00:43:47;5.20;67.70
17208;DHT22;8720;48.488;9.202;2022-12-20T00:46:16;5.20;67.90
17208;DHT22;8720;48.488;9.202;2022-12-20T00:48:45;5.20;68.10
17208;DHT22;8720;48.488;9.202;2022-12-20T00:51:15;5.10;68.30
17208;DHT22;8720;48.488;9.202;2022-12-20T00:53:43;5.10;68.50
17208;DHT22;8720;48.488;9.202;2022-12-20T00:56:11;5.10;68.80
17208;DHT22;8720;48.488;9.202;2022-12-20T00:58:41;5.10;68.90
17208;DHT22;8720;48.488;9.202;2022-12-20T01:01:17;5.10;68.90
17208;DHT22;8720;48.488;9.202;2022-12-20T01:03:47;5.10;68.90
17208;DHT22;8720;48.488;9.202;2022-12-20T01:06:16;5.10;69.60
17208;DHT22;8720;48.488;9.202;2022-12-20T01:08:43;5.20;70.00
17208;DHT22;8720;48.488;9.202;2022-12-20T01:11:13;5.20;70.30
17208;DHT22;8720;48.488;9.202;2022-12-20T01:13:44;5.30;70.40
17208;DHT22;8720;48.488;9.202;2022-12-20T01:16:16;5.30;70.40
17208;DHT22;8720;48.488;9.202;2022-12-20T01:18:46;5.30;70.30
17208;DHT22;8720;48.488;9.202;2022-12-20T01:21:16;5.40;70.40
17208;DHT22;8720;48.488;9.202;2022-12-20T01:23:45;5.40;70.30
17208;DHT22;8720;48.488;9.202;2022-12-20T01:26:14;5.50;70.40
17208;DHT22;8720;48.488;9.202;2022-12-20T01:28:45;5.50;70.10
17208;DHT22;8720;48.488;9.202;2022-12-20T01:31:15;5.50;69.90
17208;DHT22;8720;48.488;9.202;2022-12-20T01:33:46;5.50;69.70
17208;DHT22;8720;48.488;9.202;2022-12-20T01:36:16;5.50;69.60
17208;DHT22;8720;48.488;9.202;2022-12-20T01:38:44;5.50;69.60
17208;DHT22;8720;48.488;9.202;2022-12-20T01:41:14;5.60;69.60
17208;DHT22;8720;48.488;9.202;2022-12-20T01:43:48;5.50;68.90
17208;DHT22;8720;48.488;9.202;2022-12-20T01:46:20;5.60;68.90
17208;DHT22;8720;48.488;9.202;2022-12-20T01:48:52;5.50;69.10
17208;DHT22;8720;48.488;9.202;2022-12-20T01:51:23;5.60;69.10
17208;DHT22;8720;48.488;9.202;2022-12-20T01:53:55;5.50;69.40
17208;DHT22;8720;48.488;9.202;2022-12-20T01:56:27;5.50;69.20
17208;DHT22;8720;48.488;9.202;2022-12-20T01:58:55;5.60;69.80
17208;DHT22;8720;48.488;9.202;2022-12-20T02:01:26;5.60;69.80
17208;DHT22;8720;48.488;9.202;2022-12-20T02:03:54;5.60;69.80
17208;DHT22;8720;48.488;9.202;2022-12-20T02:06:24;5.60;70.00
17208;DHT22;8720;48.488;9.202;2022-12-20T02:08:56;5.60;69.90
17208;DHT22;8720;48.488;9.202;2022-12-20T02:11:58;5.60;69.90
17208;DHT22;8720;48.488;9.202;2022-12-20T02:14:45;5.70;69.20
17208;DHT22;8720;48.488;9.202;2022-12-20T02:17:33;5.70;70.00
17208;DHT22;8720;48.488;9.202;2022-12-20T02:20:27;5.70;70.30
17208;DHT22;8720;48.488;9.202;2022-12-20T02:30:15;6.00;71.70
17208;DHT22;8720;48.488;9.202;2022-12-20T02:32:50;6.10;72.30
17208;DHT22;8720;48.488;9.202;2022-12-20T02:35:25;6.20;71.40
17208;DHT22;8720;48.488;9.202;2022-12-20T02:37:56;6.30;70.70
17208;DHT22;8720;48.488;9.202;2022-12-20T02:40:26;6.30;70.10
17208;DHT22;8720;48.488;9.202;2022-12-20T02:43:00;6.30;69.80
17208;DHT22;8720;48.488;9.202;2022-12-20T02:45:53;6.30;69.00
17208;DHT22;8720;48.488;9.202;2022-12-20T02:48:24;6.30;68.10
17208;DHT22;8720;48.488;9.202;2022-12-20T02:50:57;6.20;67.50
17208;DHT22;8720;48.488;9.202;2022-12-20T02:53:25;6.10;67.40
17208;DHT22;8720;48.488;9.202;2022-12-20T02:55:59;6.10;67.50
17208;DHT22;8720;48.488;9.202;2022-12-20T02:58:36;6.00;67.10
17208;DHT22;8720;48.488;9.202;2022-12-20T03:03:40;5.90;67.60
17208;DHT22;8720;48.488;9.202;2022-12-20T03:06:08;5.80;67.30
17208;DHT22;8720;48.488;9.202;2022-12-20T03:08:36;5.80;67.60
17208;DHT22;8720;48.488;9.202;2022-12-20T03:11:03;5.70;67.70
17208;DHT22;8720;48.488;9.202;2022-12-20T03:13:31;5.70;67.90
17208;DHT22;8720;48.488;9.202;2022-12-20T03:16:04;5.70;68.10
17208;DHT22;8720;48.488;9.202;2022-12-20T03:18:32;5.70;68.30
17208;DHT22;8720;48.488;9.202;2022-12-20T03:21:01;5.70;68.40
17208;DHT22;8720;48.488;9.202;2022-12-20T03:23:28;5.70;68.40
17208;DHT22;8720;48.488;9.202;2022-12-20T03:25:56;5.70;68.60
17208;DHT22;8720;48.488;9.202;2022-12-20T03:28:37;5.60;68.40
17208;DHT22;8720;48.488;9.202;2022-12-20T03:31:06;5.70;68.60
17208;DHT22;8720;48.488;9.202;2022-12-20T03:33:41;5.60;68.50
17208;DHT22;8720;48.488;9.202;2022-12-20T03:36:10;5.60;68.40
17208;DHT22;8720;48.488;9.202;2022-12-20T03:38:37;5.60;68.30
17208;DHT22;8720;48.488;9.202;2022-12-20T03:41:07;5.60;68.50
17208;DHT22;8720;48.488;9.202;2022-12-20T03:43:34;5.60;68.60
17208;DHT22;8720;48.488;9.202;2022-12-20T03:46:01;5.60;68.60
17208;DHT22;8720;48.488;9.202;2022-12-20T03:48:33;5.60;68.70
17208;DHT22;8720;48.488;9.202;2022-12-20T03:51:01;5.60;68.80
17208;DHT22;8720;48.488;9.202;2022-12-20T03:53:30;5.60;68.80
17208;DHT22;8720;48.488;9.202;2022-12-20T03:55:57;5.60;68.60
17208;DHT22;8720;48.488;9.202;2022-12-20T03:58:24;5.60;68.90
17208;DHT22;8720;48.488;9.202;2022-12-20T04:00:52;5.60;69.10
17208;DHT22;8720;48.488;9.202;2022-12-20T04:03:46;5.60;69.40
17208;DHT22;8720;48.488;9.202;2022-12-20T04:06:13;5.60;69.70
17208;DHT22;8720;48.488;9.202;2022-12-20T04:08:42;5.60;70.00
17208;DHT22;8720;48.488;9.202;2022-12-20T04:11:12;5.70;70.10
17208;DHT22;8720;48.488;9.202;2022-12-20T04:13:51;5.70;70.30
17208;DHT22;8720;48.488;9.202;2022-12-20T04:16:21;5.70;70.10
17208;DHT22;8720;48.488;9.202;2022-12-20T04:18:51;5.80;70.20
17208;DHT22;8720;48.488;9.202;2022-12-20T04:21:21;5.80;70.40
17208;DHT22;8720;48.488;9.202;2022-12-20T04:23:53;5.80;70.10
17208;DHT22;8720;48.488;9.202;2022-12-20T04:26:23;5.90;70.30
17208;DHT22;8720;48.488;9.202;2022-12-20T04:28:51;5.90;70.60
17208;DHT22;8720;48.488;9.202;2022-12-20T04:31:19;5.90;70.70
17208;DHT22;8720;48.488;9.202;2022-12-20T04:33:47;6.00;70.70
17208;DHT22;8720;48.488;9.202;2022-12-20T04:36:15;6.00;70.70
17208;DHT22;8720;48.488;9.202;2022-12-20T04:38:43;6.10;70.50
17208;DHT22;8720;48.488;9.202;2022-12-20T04:41:11;6.10;70.50
17208;DHT22;8720;48.488;9.202;2022-12-20T04:43:49;6.10;70.10
17208;DHT22;8720;48.488;9.202;2022-12-20T04:46:19;6.20;70.30
17208;DHT22;8720;48.488;9.202;2022-12-20T04:48:48;6.20;70.20
17208;DHT22;8720;48.488;9.202;2022-12-20T04:51:16;6.20;70.20
17208;DHT22;8720;48.488;9.202;2022-12-20T04:53:44;6.20;70.10
17208;DHT22;8720;48.488;9.202;2022-12-20T04:56:26;6.30;70.20
17208;DHT22;8720;48.488;9.202;2022-12-20T04:59:01;6.30;69.70
17208;DHT22;8720;48.488;9.202;2022-12-20T05:01:29;6.30;70.00
17208;DHT22;8720;48.488;9.202;2022-12-20T05:03:56;6.30;69.80
17208;DHT22;8720;48.488;9.202;2022-12-20T05:06:27;6.30;69.70
17208;DHT22;8720;48.488;9.202;2022-12-20T05:08:55;6.30;69.60
17208;DHT22;8720;48.488;9.202;2022-12-20T05:11:23;6.30;69.60
17208;DHT22;8720;48.488;9.202;2022-12-20T05:13:51;6.30;69.30
17208;DHT22;8720;48.488;9.202;2022-12-20T05:16:19;6.30;69.60
17208;DHT22;8720;48.488;9.202;2022-12-20T05:18:47;6.30;69.60
17208;DHT22;8720;48.488;9.202;2022-12-20T05:21:14;6.30;69.70
17208;DHT22;8720;48.488;9.202;2022-12-20T05:23:59;6.40;69.80
17208;DHT22;8720;48.488;9.202;2022-12-20T05:27:11;6.40;69.90
17208;DHT22;8720;48.488;9.202;2022-12-20T05:29:39;6.40;69.40
17208;DHT22;8720;48.488;9.202;2022-12-20T05:32:06;6.40;69.50
17208;DHT22;8720;48.488;9.202;2022-12-20T05:34:38;6.40;69.60
17208;DHT22;8720;48.488;9.202;2022-12-20T05:39:44;6.40;68.70
17208;DHT22;8720;48.488;9.202;2022-12-20T05:42:19;6.40;69.50
17208;DHT22;8720;48.488;9.202;2022-12-20T05:44:49;6.40;69.30
17208;DHT22;8720;48.488;9.202;2022-12-20T05:47:16;6.40;69.60
17208;DHT22;8720;48.488;9.202;2022-12-20T05:49:44;6.50;69.70
17208;DHT22;8720;48.488;9.202;2022-12-20T05:52:12;6.50;69.70
17208;DHT22;8720;48.488;9.202;2022-12-20T05:54:40;6.50;69.70
17208;DHT22;8720;48.488;9.202;2022-12-20T05:57:11;6.50;69.50
17208;DHT22;8720;48.488;9.202;2022-12-20T05:59:42;6.50;69.40
17208;DHT22;8720;48.488;9.202;2022-12-20T06:02:15;6.50;69.00
17208;DHT22;8720;48.488;9.202;2022-12-20T06:04:43;6.50;69.20
17208;DHT22;8720;48.488;9.202;2022-12-20T06:07:15;6.50;69.20
17208;DHT22;8720;48.488;9.202;2022-12-20T06:09:46;6.60;69.10
17208;DHT22;8720;48.488;9.202;2022-12-20T06:12:16;6.60;68.90
17208;DHT22;8720;48.488;9.202;2022-12-20T06:14:46;6.50;68.60
17208;DHT22;8720;48.488;9.202;2022-12-20T06:17:14;6.50;68.10
17208;DHT22;8720;48.488;9.202;2022-12-20T06:19:42;6.50;68.20
17208;DHT22;8720;48.488;9.202;2022-12-20T06:22:12;6.50;68.20
17208;DHT22;8720;48.488;9.202;2022-12-20T06:24:42;6.50;68.10
17208;DHT22;8720;48.488;9.202;2022-12-20T06:27:09;6.40;68.00
17208;DHT22;8720;48.488;9.202;2022-12-20T06:29:37;6.40;67.90
17208;DHT22;8720;48.488;9.202;2022-12-20T06:32:10;6.40;68.00
17208;DHT22;8720;48.488;9.202;2022-12-20T06:34:38;6.30;67.70
17208;DHT22;8720;48.488;9.202;2022-12-20T06:37:05;6.30;68.00
17208;DHT22;8720;48.488;9.202;2022-12-20T06:39:37;6.30;68.00
17208;DHT22;8720;48.488;9.202;2022-12-20T06:42:07;6.20;68.60
17208;DHT22;8720;48.488;9.202;2022-12-20T06:44:35;6.20;68.10
17208;DHT22;8720;48.488;9.202;2022-12-20T06:47:02;6.20;68.30
17208;DHT22;8720;48.488;9.202;2022-12-20T06:49:31;6.20;68.40
17208;DHT22;8720;48.488;9.202;2022-12-20T06:52:00;6.20;68.40
17208;DHT22;8720;48.488;9.202;2022-12-20T06:54:43;6.20;68.70
17208;DHT22;8720;48.488;9.202;2022-12-20T06:57:12;6.20;68.90
17208;DHT22;8720;48.488;9.202;2022-12-20T06:59:41;6.20;69.00
17208;DHT22;8720;48.488;9.202;2022-12-20T07:02:09;6.20;69.00
17208;DHT22;8720;48.488;9.202;2022-12-20T07:04:38;6.20;69.10
17208;DHT22;8720;48.488;9.202;2022-12-20T07:07:06;6.20;69.10
17208;DHT22;8720;48.488;9.202;2022-12-20T07:09:33;6.20;70.40
17208;DHT22;8720;48.488;9.202;2022-12-20T07:12:02;6.20;69.90
17208;DHT22;8720;48.488;9.202;2022-12-20T07:14:30;6.30;70.00
17208;DHT22;8720;48.488;9.202;2022-12-20T07:16:57;6.30;69.90
17208;DHT22;8720;48.488;9.202;2022-12-20T07:19:25;6.30;69.80
17208;DHT22;8720;48.488;9.202;2022-12-20T07:21:53;6.30;69.60
17208;DHT22;8720;48.488;9.202;2022-12-20T07:24:21;6.40;69.30
17208;DHT22;8720;48.488;9.202;2022-12-20T07:26:49;6.40;69.10
17208;DHT22;8720;48.488;9.202;2022-12-20T07:29:16;6.40;69.00
17208;DHT22;8720;48.488;9.202;2022-12-20T07:31:43;6.40;68.80
17208;DHT22;8720;48.488;9.202;2022-12-20T07:34:10;6.40;69.60
17208;DHT22;8720;48.488;9.202;2022-12-20T07:36:38;6.40;68.90
17208;DHT22;8720;48.488;9.202;2022-12-20T07:39:06;6.40;68.90
17208;DHT22;8720;48.488;9.202;2022-12-20T07:41:34;6.40;68.50
17208;DHT22;8720;48.488;9.202;2022-12-20T07:44:02;6.40;68.80
17208;DHT22;8720;48.488;9.202;2022-12-20T07:46:29;6.50;68.80
17208;DHT22;8720;48.488;9.202;2022-12-20T07:48:57;6.50;68.80
17208;DHT22;8720;48.488;9.202;2022-12-20T07:51:26;6.50;68.80
17208;DHT22;8720;48.488;9.202;2022-12-20T07:54:00;6.50;68.70
17208;DHT22;8720;48.488;9.202;2022-12-20T07:56:33;6.60;68.60
17208;DHT22;8720;48.488;9.202;2022-12-20T07:59:05;6.60;68.60
17208;DHT22;8720;48.488;9.202;2022-12-20T08:01:33;6.60;69.00
17208;DHT22;8720;48.488;9.202;2022-12-20T08:04:04;6.70;69.40
17208;DHT22;8720;48.488;9.202;2022-12-20T08:06:35;6.70;68.80
17208;DHT22;8720;48.488;9.202;2022-12-20T08:09:05;6.70;68.80
17208;DHT22;8720;48.488;9.202;2022-12-20T08:11:36;6.80;69.20
17208;DHT22;8720;48.488;9.202;2022-12-20T08:14:05;6.80;68.70
17208;DHT22;8720;48.488;9.202;2022-12-20T08:16:34;6.80;68.90
17208;DHT22;8720;48.488;9.202;2022-12-20T08:19:01;6.90;69.30
17208;DHT22;8720;48.488;9.202;2022-12-20T08:21:29;6.90;69.30
17208;DHT22;8720;48.488;9.202;2022-12-20T08:23:56;7.00;69.20
17208;DHT22;8720;48.488;9.202;2022-12-20T08:26:24;7.00;69.40
17208;DHT22;8720;48.488;9.202;2022-12-20T08:28:53;7.00;69.30
17208;DHT22;8720;48.488;9.202;2022-12-20T08:31:21;7.10;69.00
17208;DHT22;8720;48.488;9.202;2022-12-20T08:33:49;7.10;69.90
17208;DHT22;8720;48.488;9.202;2022-12-20T08:36:19;7.20;69.40
17208;DHT22;8720;48.488;9.202;2022-12-20T08:38:46;7.20;69.40
17208;DHT22;8720;48.488;9.202;2022-12-20T08:41:14;7.30;69.60
17208;DHT22;8720;48.488;9.202;2022-12-20T08:43:42;7.30;69.40
17208;DHT22;8720;48.488;9.202;2022-12-20T08:46:11;7.40;69.60
17208;DHT22;8720;48.488;9.202;2022-12-20T08:48:39;7.40;69.30
17208;DHT22;8720;48.488;9.202;2022-12-20T08:51:09;7.50;69.60
17208;DHT22;8720;48.488;9.202;2022-12-20T08:53:37;7.50;69.10
17208;DHT22;8720;48.488;9.202;2022-12-20T08:56:06;7.60;69.50
17208;DHT22;8720;48.488;9.202;2022-12-20T08:58:35;7.60;69.20
17208;DHT22;8720;48.488;9.202;2022-12-20T09:01:04;7.70;69.20
17208;DHT22;8720;48.488;9.202;2022-12-20T09:03:36;7.70;68.90
17208;DHT22;8720;48.488;9.202;2022-12-20T09:06:05;7.70;68.60
17208;DHT22;8720;48.488;9.202;2022-12-20T09:08:34;7.80;69.00
17208;DHT22;8720;48.488;9.202;2022-12-20T09:11:04;7.80;69.00
17208;DHT22;8720;48.488;9.202;2022-12-20T09:13:32;7.90;69.00
17208;DHT22;8720;48.488;9.202;2022-12-20T09:16:00;7.90;69.10
17208;DHT22;8720;48.488;9.202;2022-12-20T09:18:28;8.00;69.00
17208;DHT22;8720;48.488;9.202;2022-12-20T09:20:58;8.00;69.00
17208;DHT22;8720;48.488;9.202;2022-12-20T09:23:27;8.10;68.20
17208;DHT22;8720;48.488;9.202;2022-12-20T09:25:55;8.10;68.60
17208;DHT22;8720;48.488;9.202;2022-12-20T09:28:27;8.10;68.50
17208;DHT22;8720;48.488;9.202;2022-12-20T09:30:57;8.20;68.60
17208;DHT22;8720;48.488;9.202;2022-12-20T09:33:24;8.20;67.90
17208;DHT22;8720;48.488;9.202;2022-12-20T09:35:53;8.20;68.50
17208;DHT22;8720;48.488;9.202;2022-12-20T09:38:22;8.20;68.60
17208;DHT22;8720;48.488;9.202;2022-12-20T09:40:50;8.20;68.50
17208;DHT22;8720;48.488;9.202;2022-12-20T09:43:21;8.30;69.00
17208;DHT22;8720;48.488;9.202;2022-12-20T09:45:51;8.30;69.20
17208;DHT22;8720;48.488;9.202;2022-12-20T09:48:22;8.40;68.90
17208;DHT22;8720;48.488;9.202;2022-12-20T09:51:01;8.40;69.10
17208;DHT22;8720;48.488;9.202;2022-12-20T09:53:45;8.50;68.30
17208;DHT22;8720;48.488;9.202;2022-12-20T09:56:26;8.50;67.90
17208;DHT22;8720;48.488;9.202;2022-12-20T09:59:00;8.60;68.30
17208;DHT22;8720;48.488;9.202;2022-12-20T10:01:32;8.60;68.60
17208;DHT22;8720;48.488;9.202;2022-12-20T10:04:03;8.60;68.60
17208;DHT22;8720;48.488;9.202;2022-12-20T10:06:42;8.70;68.90
17208;DHT22;8720;48.488;9.202;2022-12-20T10:09:35;8.80;68.20
17208;DHT22;8720;48.488;9.202;2022-12-20T10:12:20;8.80;68.10
17208;DHT22;8720;48.488;9.202;2022-12-20T10:15:19;8.90;68.60
17208;DHT22;8720;48.488;9.202;2022-12-20T10:18:08;9.00;67.40
17208;DHT22;8720;48.488;9.202;2022-12-20T10:20:54;9.10;67.90
17208;DHT22;8720;48.488;9.202;2022-12-20T10:23:29;9.20;68.40
17208;DHT22;8720;48.488;9.202;2022-12-20T10:26:08;9.30;68.40
17208;DHT22;8720;48.488;9.202;2022-12-20T10:28:37;9.30;67.80
17208;DHT22;8720;48.488;9.202;2022-12-20T10:31:10;9.40;68.70
17208;DHT22;8720;48.488;9.202;2022-12-20T10:33:40;9.40;68.00
17208;DHT22;8720;48.488;9.202;2022-12-20T10:36:23;9.50;68.00
17208;DHT22;8720;48.488;9.202;2022-12-20T10:38:53;9.50;66.10
17208;DHT22;8720;48.488;9.202;2022-12-20T10:41:24;9.50;67.30
17208;DHT22;8720;48.488;9.202;2022-12-20T10:43:57;9.50;66.90
17208;DHT22;8720;48.488;9.202;2022-12-20T10:46:38;9.50;66.70
17208;DHT22;8720;48.488;9.202;2022-12-20T10:49:26;9.50;65.40
17208;DHT22;8720;48.488;9.202;2022-12-20T10:51:56;9.50;65.10
17208;DHT22;8720;48.488;9.202;2022-12-20T10:54:31;9.40;66.40
17208;DHT22;8720;48.488;9.202;2022-12-20T10:57:11;9.40;65.70
17208;DHT22;8720;48.488;9.202;2022-12-20T10:59:48;9.40;65.80
17208;DHT22;8720;48.488;9.202;2022-12-20T11:02:25;9.40;65.70
17208;DHT22;8720;48.488;9.202;2022-12-20T11:04:58;9.40;65.30
17208;DHT22;8720;48.488;9.202;2022-12-20T11:07:29;9.30;65.60
17208;DHT22;8720;48.488;9.202;2022-12-20T11:10:00;9.30;66.10
17208;DHT22;8720;48.488;9.202;2022-12-20T11:12:52;9.30;66.20
17208;DHT22;8720;48.488;9.202;2022-12-20T11:15:23;9.20;65.00
17208;DHT22;8720;48.488;9.202;2022-12-20T11:17:56;9.20;65.70
17208;DHT22;8720;48.488;9.202;2022-12-20T11:20:36;9.20;65.80
17208;DHT22;8720;48.488;9.202;2022-12-20T11:23:17;9.20;65.70
17208;DHT22;8720;48.488;9.202;2022-12-20T11:26:12;9.20;65.10
17208;DHT22;8720;48.488;9.202;2022-12-20T11:29:09;9.20;64.80
17208;DHT22;8720;48.488;9.202;2022-12-20T11:31:53;9.20;65.00
17208;DHT22;8720;48.488;9.202;2022-12-20T11:34:36;9.20;66.10
17208;DHT22;8720;48.488;9.202;2022-12-20T11:37:19;9.20;66.00
17208;DHT22;8720;48.488;9.202;2022-12-20T11:40:05;9.20;65.90
17208;DHT22;8720;48.488;9.202;2022-12-20T11:43:09;9.20;65.30
17208;DHT22;8720;48.488;9.202;2022-12-20T11:46:12;9.30;66.00
17208;DHT22;8720;48.488;9.202;2022-12-20T11:49:04;9.30;65.90
17208;DHT22;8720;48.488;9.202;2022-12-20T11:51:47;9.30;65.40
17208;DHT22;8720;48.488;9.202;2022-12-20T11:54:22;9.40;67.30
17208;DHT22;8720;48.488;9.202;2022-12-20T11:56:58;9.50;66.90
17208;DHT22;8720;48.488;9.202;2022-12-20T11:59:36;9.50;66.90
17208;DHT22;8720;48.488;9.202;2022-12-20T12:02:12;9.60;66.70
17208;DHT22;8720;48.488;9.202;2022-12-20T12:04:45;9.60;67.10
17208;DHT22;8720;48.488;9.202;2022-12-20T12:07:22;9.70;67.00
17208;DHT22;8720;48.488;9.202;2022-12-20T12:09:57;9.70;66.70
17208;DHT22;8720;48.488;9.202;2022-12-20T12:12:31;9.70;66.50
17208;DHT22;8720;48.488;9.202;2022-12-20T12:15:05;9.70;66.10
17208;DHT22;8720;48.488;9.202;2022-12-20T12:17:53;9.80;66.00
17208;DHT22;8720;48.488;9.202;2022-12-20T12:20:32;9.80;65.70
17208;DHT22;8720;48.488;9.202;2022-12-20T12:23:14;9.80;65.60
17208;DHT22;8720;48.488;9.202;2022-12-20T12:25:50;9.80;65.80
17208;DHT22;8720;48.488;9.202;2022-12-20T12:28:19;9.80;67.10
17208;DHT22;8720;48.488;9.202;2022-12-20T12:30:52;9.90;67.10
17208;DHT22;8720;48.488;9.202;2022-12-20T12:33:29;9.90;67.00
17208;DHT22;8720;48.488;9.202;2022-12-20T12:36:19;10.00;66.30
17208;DHT22;8720;48.488;9.202;2022-12-20T12:42:29;10.10;65.50
17208;DHT22;8720;48.488;9.202;2022-12-20T12:45:16;10.20;64.60
17208;DHT22;8720;48.488;9.202;2022-12-20T12:47:50;10.20;65.50
17208;DHT22;8720;48.488;9.202;2022-12-20T12:50:25;10.30;65.80
17208;DHT22;8720;48.488;9.202;2022-12-20T12:52:56;10.30;65.20
17208;DHT22;8720;48.488;9.202;2022-12-20T12:55:43;10.30;65.40
17208;DHT22;8720;48.488;9.202;2022-12-20T12:58:32;10.30;64.10
17208;DHT22;8720;48.488;9.202;2022-12-20T13:01:03;10.30;63.50
17208;DHT22;8720;48.488;9.202;2022-12-20T13:03:45;10.40;65.00
17208;DHT22;8720;48.488;9.202;2022-12-20T13:13:24;10.40;63.80
17208;DHT22;8720;48.488;9.202;2022-12-20T13:16:09;10.40;65.90
17208;DHT22;8720;48.488;9.202;2022-12-20T13:21:42;10.40;63.20
17208;DHT22;8720;48.488;9.202;2022-12-20T13:27:28;10.40;62.90
17208;DHT22;8720;48.488;9.202;2022-12-20T13:30:23;10.40;64.80
17208;DHT22;8720;48.488;9.202;2022-12-20T13:36:30;10.40;63.60
17208;DHT22;8720;48.488;9.202;2022-12-20T13:39:02;10.40;63.50
17208;DHT22;8720;48.488;9.202;2022-12-20T13:41:52;10.40;65.00
17208;DHT22;8720;48.488;9.202;2022-12-20T13:44:44;10.30;64.20
17208;DHT22;8720;48.488;9.202;2022-12-20T13:50:27;10.30;63.50
17208;DHT22;8720;48.488;9.202;2022-12-20T13:52:57;10.30;63.00
17208;DHT22;8720;48.488;9.202;2022-12-20T13:55:32;10.30;64.90
17208;DHT22;8720;48.488;9.202;2022-12-20T13:58:10;10.30;63.80
17208;DHT22;8720;48.488;9.202;2022-12-20T14:00:40;10.30;63.80
17208;DHT22;8720;48.488;9.202;2022-12-20T14:03:20;10.30;64.80
17208;DHT22;8720;48.488;9.202;2022-12-20T14:05:56;10.30;63.80
17208;DHT22;8720;48.488;9.202;2022-12-20T14:08:29;10.20;63.50
17208;DHT22;8720;48.488;9.202;2022-12-20T14:11:07;10.20;64.20
17208;DHT22;8720;48.488;9.202;2022-12-20T14:13:39;10.20;63.50
17208;DHT22;8720;48.488;9.202;2022-12-20T14:16:08;10.20;64.60
17208;DHT22;8720;48.488;9.202;2022-12-20T14:18:37;10.20;65.10
17208;DHT22;8720;48.488;9.202;2022-12-20T14:21:04;10.20;66.00
17208;DHT22;8720;48.488;9.202;2022-12-20T14:23:35;10.20;65.30
17208;DHT22;8720;48.488;9.202;2022-12-20T14:26:10;10.20;64.80
17208;DHT22;8720;48.488;9.202;2022-12-20T14:28:43;10.20;64.40
17208;DHT22;8720;48.488;9.202;2022-12-20T14:31:23;10.20;64.50
17208;DHT22;8720;48.488;9.202;2022-12-20T14:34:01;10.20;63.50
17208;DHT22;8720;48.488;9.202;2022-12-20T14:36:31;10.10;63.50
17208;DHT22;8720;48.488;9.202;2022-12-20T14:38:59;10.10;64.70
17208;DHT22;8720;48.488;9.202;2022-12-20T14:41:32;10.10;64.70
17208;DHT22;8720;48.488;9.202;2022-12-20T14:44:12;10.10;63.50
17208;DHT22;8720;48.488;9.202;2022-12-20T14:46:47;10.00;62.60
17208;DHT22;8720;48.488;9.202;2022-12-20T14:49:21;10.00;63.10
17208;DHT22;8720;48.488;9.202;2022-12-20T14:52:02;9.90;64.50
17208;DHT22;8720;48.488;9.202;2022-12-20T14:54:32;9.80;64.70
17208;DHT22;8720;48.488;9.202;2022-12-20T14:57:01;9.80;65.00
17208;DHT22;8720;48.488;9.202;2022-12-20T14:59:30;9.80;65.30
17208;DHT22;8720;48.488;9.202;2022-12-20T15:02:24;9.70;64.90
17208;DHT22;8720;48.488;9.202;2022-12-20T15:05:05;9.70;63.50
17208;DHT22;8720;48.488;9.202;2022-12-20T15:07:34;9.70;65.40
17208;DHT22;8720;48.488;9.202;2022-12-20T15:10:06;9.60;65.30
17208;DHT22;8720;48.488;9.202;2022-12-20T15:12:34;9.60;65.10
17208;DHT22;8720;48.488;9.202;2022-12-20T15:15:01;9.60;65.30
17208;DHT22;8720;48.488;9.202;2022-12-20T15:17:31;9.60;65.40
17208;DHT22;8720;48.488;9.202;2022-12-20T15:19:58;9.60;65.10
17208;DHT22;8720;48.488;9.202;2022-12-20T15:22:25;9.50;65.40
17208;DHT22;8720;48.488;9.202;2022-12-20T15:24:53;9.50;65.40
17208;DHT22;8720;48.488;9.202;2022-12-20T15:27:20;9.50;65.40
17208;DHT22;8720;48.488;9.202;2022-12-20T15:29:49;9.40;65.30
17208;DHT22;8720;48.488;9.202;2022-12-20T15:32:21;9.40;65.30
17208;DHT22;8720;48.488;9.202;2022-12-20T15:34:54;9.40;64.50
17208;DHT22;8720;48.488;9.202;2022-12-20T15:37:21;9.40;65.00
17208;DHT22;8720;48.488;9.202;2022-12-20T15:39:48;9.40;65.50
17208;DHT22;8720;48.488;9.202;2022-12-20T15:42:17;9.30;65.40
17208;DHT22;8720;48.488;9.202;2022-12-20T15:44:47;9.30;65.10
17208;DHT22;8720;48.488;9.202;2022-12-20T15:47:15;9.20;65.80
17208;DHT22;8720;48.488;9.202;2022-12-20T15:49:43;9.20;65.50
17208;DHT22;8720;48.488;9.202;2022-12-20T15:52:18;9.20;65.70
17208;DHT22;8720;48.488;9.202;2022-12-20T15:54:46;9.20;64.90
17208;DHT22;8720;48.488;9.202;2022-12-20T15:57:15;9.20;66.00
17208;DHT22;8720;48.488;9.202;2022-12-20T15:59:43;9.20;65.80
17208;DHT22;8720;48.488;9.202;2022-12-20T16:02:19;9.20;66.10
17208;DHT22;8720;48.488;9.202;2022-12-20T16:04:47;9.30;65.50
17208;DHT22;8720;48.488;9.202;2022-12-20T16:07:17;9.30;66.50
17208;DHT22;8720;48.488;9.202;2022-12-20T16:09:45;9.30;66.10
17208;DHT22;8720;48.488;9.202;2022-12-20T16:12:13;9.30;66.40
17208;DHT22;8720;48.488;9.202;2022-12-20T16:14:43;9.30;66.00
17208;DHT22;8720;48.488;9.202;2022-12-20T16:17:12;9.30;66.40
17208;DHT22;8720;48.488;9.202;2022-12-20T16:19:40;9.30;66.30
17208;DHT22;8720;48.488;9.202;2022-12-20T16:22:12;9.30;66.50
17208;DHT22;8720;48.488;9.202;2022-12-20T16:24:42;9.40;66.10
17208;DHT22;8720;48.488;9.202;2022-12-20T16:27:10;9.30;66.10
17208;DHT22;8720;48.488;9.202;2022-12-20T16:29:38;9.30;66.40
17208;DHT22;8720;48.488;9.202;2022-12-20T16:32:12;9.30;66.20
17208;DHT22;8720;48.488;9.202;2022-12-20T16:34:48;9.40;65.10
17208;DHT22;8720;48.488;9.202;2022-12-20T16:37:16;9.30;66.10
17208;DHT22;8720;48.488;9.202;2022-12-20T16:39:45;9.30;65.90
17208;DHT22;8720;48.488;9.202;2022-12-20T16:42:14;9.30;65.70
17208;DHT22;8720;48.488;9.202;2022-12-20T16:44:42;9.30;66.00
17208;DHT22;8720;48.488;9.202;2022-12-20T16:47:10;9.20;66.80
17208;DHT22;8720;48.488;9.202;2022-12-20T16:49:37;9.20;66.20
17208;DHT22;8720;48.488;9.202;2022-12-20T16:52:04;9.20;66.20
17208;DHT22;8720;48.488;9.202;2022-12-20T16:54:39;9.10;66.10
17208;DHT22;8720;48.488;9.202;2022-12-20T16:57:08;9.10;66.20
17208;DHT22;8720;48.488;9.202;2022-12-20T16:59:36;9.10;65.60
17208;DHT22;8720;48.488;9.202;2022-12-20T17:02:17;9.10;66.00
17208;DHT22;8720;48.488;9.202;2022-12-20T17:04:49;9.10;64.70
17208;DHT22;8720;48.488;9.202;2022-12-20T17:07:16;9.00;65.90
17208;DHT22;8720;48.488;9.202;2022-12-20T17:09:43;9.00;66.60